Time;durP1;ratioP1;P1;durP2;ratioP2;P2;SDS_P1;SDS_P2;PMS_P1;PMS_P2;Temp;Humidity;BMP_temperature;BMP_pressure;BME280_temperature;BME280_humidity;BME280_pressure;Samples;Min_cycle;Max_cycle;Signal;HPM_P1;HPM_P2
2022/09/21 00:08:13;;;;;;;3.58;2.65;;;8.00;99.90;;;;;;20727401;28;20099;-46
2022/09/21 00:18:16;;;;;;;1.90;1.25;;;7.80;99.90;;;;;;20750546;28;20045;-58
2022/09/21 00:28:18;;;;;;;1.20;0.65;;;7.60;99.90;;;;;;20807614;28;20490;-44
2022/09/21 00:38:21;;;;;;;0.50;0.20;;;7.60;99.90;;;;;;20824285;28;20549;-46
2022/09/21 00:48:23;;;;;;;1.15;0.22;;;7.60;99.90;;;;;;20732905;28;20561;-45
2022/09/21 00:58:43;;;;;;;1.90;0.20;;;7.40;99.90;;;;;;20740911;28;20100;-45
2022/09/21 01:08:51;;;;;;;1.08;0.30;;;7.10;99.90;;;;;;20792328;28;20095;-46
2022/09/21 01:19:42;;;;;;;1.33;0.30;;;6.70;99.90;;;;;;20772857;28;20080;-47
2022/09/21 01:30:10;;;;;;;1.30;0.30;;;6.60;99.90;;;;;;20821023;28;20498;-45
2022/09/21 01:40:22;;;;;;;1.48;0.30;;;6.70;99.90;;;;;;20798863;28;20033;-45
2022/09/21 01:50:30;;;;;;;1.10;0.30;;;6.90;99.90;;;;;;20746973;28;20420;-45
2022/09/21 02:00:35;;;;;;;0.93;0.30;;;6.90;99.90;;;;;;20819534;28;20038;-45
2022/09/21 02:10:48;;;;;;;0.80;0.38;;;7.00;99.90;;;;;;20833316;28;20033;-45
2022/09/21 02:20:58;;;;;;;0.70;0.30;;;7.40;99.90;;;;;;20833867;28;20037;-46
2022/09/21 02:31:12;;;;;;;0.40;0.30;;;7.50;99.90;;;;;;20800557;28;20037;-45
2022/09/21 02:41:32;;;;;;;2.10;0.40;;;7.60;99.90;;;;;;20818849;28;20099;-45
2022/09/21 02:51:40;;;;;;;0.95;0.30;;;7.60;99.90;;;;;;20784330;28;20526;-45
2022/09/21 03:01:43;;;;;;;1.20;0.25;;;7.30;99.90;;;;;;20831103;28;20041;-45
2022/09/21 03:11:46;;;;;;;3.15;0.38;;;7.30;99.90;;;;;;20737691;28;20402;-46
2022/09/21 03:21:53;;;;;;;2.40;0.40;;;7.20;99.90;;;;;;20766939;28;20076;-46
2022/09/21 03:31:55;;;;;;;1.75;0.32;;;7.10;99.90;;;;;;20828973;28;20445;-46
2022/09/21 03:41:59;;;;;;;1.08;0.40;;;6.90;99.90;;;;;;20808397;28;20092;-45
2022/09/21 03:52:03;;;;;;;0.98;0.40;;;6.80;99.90;;;;;;20745085;28;20062;-44
2022/09/21 04:02:06;;;;;;;1.95;0.40;;;6.70;99.90;;;;;;20744546;28;20527;-45
2022/09/21 04:12:08;;;;;;;1.38;0.45;;;6.60;99.90;;;;;;20743853;28;20037;-44
2022/09/21 04:22:12;;;;;;;1.30;0.43;;;6.50;99.90;;;;;;20572825;28;20388;-45
2022/09/21 04:32:15;;;;;;;2.15;0.40;;;6.40;99.90;;;;;;20572203;28;20055;-44
2022/09/21 04:42:18;;;;;;;1.00;0.40;;;6.30;99.90;;;;;;20549988;28;20123;-45
2022/09/21 04:52:20;;;;;;;3.17;0.65;;;6.20;99.90;;;;;;20557657;28;20053;-45
2022/09/21 05:02:22;;;;;;;2.28;1.02;;;6.30;99.90;;;;;;20724013;28;20034;-46
2022/09/21 05:12:25;;;;;;;2.90;0.90;;;6.30;99.90;;;;;;20740069;28;20038;-46
2022/09/21 05:22:28;;;;;;;1.75;0.80;;;6.40;99.90;;;;;;20739434;28;20440;-44
2022/09/21 05:32:42;;;;;;;2.45;0.70;;;6.50;99.90;;;;;;20738906;28;20101;-47
2022/09/21 05:42:44;;;;;;;1.17;0.93;;;6.90;99.90;;;;;;20723264;28;20038;-46
2022/09/21 05:53:30;;;;;;;1.90;0.60;;;6.80;99.90;;;;;;20719540;28;20077;-46
2022/09/21 06:03:35;;;;;;;2.53;0.50;;;6.60;99.90;;;;;;20424284;29;20441;-46
2022/09/21 06:13:37;;;;;;;1.08;0.60;;;6.40;99.90;;;;;;20407848;29;20098;-45
2022/09/21 06:23:40;;;;;;;2.35;0.77;;;6.40;99.90;;;;;;20407384;28;20092;-45
2022/09/21 06:33:43;;;;;;;1.75;0.88;;;6.50;99.90;;;;;;20686961;28;20371;-45
2022/09/21 06:43:45;;;;;;;1.02;0.50;;;6.40;99.90;;;;;;20781988;28;20038;-45
2022/09/21 06:53:48;;;;;;;3.05;0.75;;;7.00;99.90;;;;;;20801246;28;20476;-46
2022/09/21 07:03:51;;;;;;;1.30;0.50;;;8.00;99.90;;;;;;20812355;28;20450;-45
2022/09/21 07:13:55;;;;;;;2.13;0.50;;;9.00;99.90;;;;;;20718396;28;20057;-44
2022/09/21 07:23:59;;;;;;;1.58;0.50;;;9.30;99.90;;;;;;20730880;28;20046;-46
2022/09/21 07:34:01;;;;;;;2.58;0.60;;;9.40;99.90;;;;;;20729274;28;20553;-45
2022/09/21 07:44:04;;;;;;;1.70;0.30;;;10.00;99.90;;;;;;20729555;28;20042;-47
2022/09/21 07:54:09;;;;;;;0.82;0.50;;;11.70;99.90;;;;;;20744929;28;20038;-46
2022/09/21 08:04:12;;;;;;;1.42;0.43;;;12.80;99.00;;;;;;20742807;28;20368;-44
2022/09/21 08:14:18;;;;;;;0.80;0.40;;;13.40;95.30;;;;;;20825380;28;20388;-45
2022/09/21 08:24:21;;;;;;;1.10;0.40;;;12.20;96.80;;;;;;20808142;28;20041;-59
2022/09/21 08:34:23;;;;;;;3.45;0.50;;;13.10;98.40;;;;;;20823858;28;20112;-45
2022/09/21 08:44:36;;;;;;;1.13;0.40;;;14.80;95.60;;;;;;20767281;28;20059;-45
2022/09/21 08:54:52;;;;;;;0.98;0.40;;;16.10;91.20;;;;;;20800226;28;20541;-46
2022/09/21 09:05:17;;;;;;;3.30;0.32;;;15.00;92.00;;;;;;20822336;28;20133;-58
2022/09/21 09:15:31;;;;;;;0.70;0.30;;;14.40;93.70;;;;;;20821028;28;20080;-58
2022/09/21 09:25:38;;;;;;;0.40;0.30;;;14.10;93.60;;;;;;20821153;28;20037;-46
2022/09/21 09:35:45;;;;;;;0.60;0.30;;;14.00;94.70;;;;;;20804111;28;20486;-59
2022/09/21 09:46:29;;;;;;;1.05;0.28;;;14.00;96.30;;;;;;20769725;28;20518;-59
2022/09/21 09:56:32;;;;;;;1.85;0.28;;;13.90;97.00;;;;;;20465865;29;20047;-45
2022/09/21 10:06:36;;;;;;;0.77;0.40;;;14.20;96.40;;;;;;20471963;28;20047;-45
2022/09/21 10:16:41;;;;;;;1.40;0.40;;;15.30;95.90;;;;;;20471997;29;20062;-46
2022/09/21 10:26:48;;;;;;;0.88;0.57;;;15.00;95.30;;;;;;20593554;28;20045;-45
2022/09/21 10:36:54;;;;;;;1.27;0.50;;;14.90;95.10;;;;;;20832909;28;20041;-46
2022/09/21 10:47:03;;;;;;;0.38;0.30;;;15.70;94.70;;;;;;20755465;28;20116;-47
2022/09/21 10:57:15;;;;;;;1.25;0.43;;;15.60;95.20;;;;;;20829574;28;20398;-45
2022/09/21 11:07:32;;;;;;;1.92;0.40;;;15.90;96.70;;;;;;20777899;28;20545;-58
2022/09/21 11:17:42;;;;;;;1.15;0.50;;;16.00;95.10;;;;;;20733471;28;20042;-46
2022/09/21 11:27:49;;;;;;;0.77;0.30;;;16.00;94.60;;;;;;20829368;28;20025;-46
2022/09/21 11:38:05;;;;;;;1.80;0.65;;;15.60;95.20;;;;;;20827413;28;20103;-44
2022/09/21 11:48:29;;;;;;;1.15;0.70;;;16.40;94.40;;;;;;20699123;28;20229;-46
2022/09/21 11:58:56;;;;;;;1.50;0.60;;;15.60;95.30;;;;;;20729840;28;20057;-45
2022/09/21 12:09:17;;;;;;;1.45;0.60;;;16.60;94.10;;;;;;20781897;28;20061;-46
2022/09/21 12:19:34;;;;;;;1.38;0.60;;;16.80;94.50;;;;;;20826711;28;20072;-59
2022/09/21 12:29:46;;;;;;;2.70;0.93;;;17.50;93.40;;;;;;20823710;28;20098;-59
2022/09/21 12:40:01;;;;;;;2.65;0.60;;;16.70;93.60;;;;;;20821658;28;20045;-45
2022/09/21 12:50:15;;;;;;;1.75;0.77;;;15.30;93.90;;;;;;20764019;28;20237;-45
2022/09/21 13:00:21;;;;;;;1.05;0.77;;;14.30;95.30;;;;;;20822441;28;20087;-59
2022/09/21 13:10:39;;;;;;;1.80;0.80;;;14.30;97.00;;;;;;20821751;28;20038;-50
2022/09/21 13:20:42;;;;;;;1.92;0.80;;;13.90;97.50;;;;;;20789300;28;20042;-59
2022/09/21 13:31:04;;;;;;;2.28;0.80;;;13.30;96.90;;;;;;20642027;28;20101;-45
2022/09/21 13:41:10;;;;;;;1.40;0.70;;;13.10;97.80;;;;;;20712228;28;20041;-59
2022/09/21 13:51:14;;;;;;;1.35;0.70;;;12.50;98.00;;;;;;20738235;28;20042;-45
2022/09/21 14:01:20;;;;;;;1.00;0.43;;;12.30;98.80;;;;;;20727833;28;20030;-46
2022/09/21 14:11:22;;;;;;;2.70;0.80;;;12.10;99.90;;;;;;20827244;28;20092;-46
2022/09/21 14:21:25;;;;;;;1.83;1.00;;;12.00;99.90;;;;;;20834078;28;20166;-46
2022/09/21 14:31:33;;;;;;;1.60;1.05;;;11.70;99.90;;;;;;20833773;28;20033;-58
2022/09/21 14:41:41;;;;;;;1.58;0.70;;;11.60;99.90;;;;;;20816412;28;20548;-45
2022/09/21 14:52:05;;;;;;;1.73;1.00;;;11.30;99.90;;;;;;20785732;28;20041;-47
2022/09/21 15:02:22;;;;;;;1.70;0.70;;;11.00;99.90;;;;;;20798751;28;20056;-46
2022/09/21 15:12:45;;;;;;;1.38;0.70;;;10.60;99.90;;;;;;20730121;28;20029;-59
2022/09/21 15:22:48;;;;;;;1.48;0.60;;;10.40;99.90;;;;;;20792425;28;20030;-46
2022/09/21 15:32:56;;;;;;;1.55;0.65;;;10.60;99.90;;;;;;20812294;28;20408;-58
2022/09/21 15:43:05;;;;;;;1.55;0.85;;;11.30;99.90;;;;;;20800461;28;20034;-45
2022/09/21 15:53:22;;;;;;;1.60;0.88;;;11.70;99.90;;;;;;20776273;28;20053;-45
2022/09/21 16:03:25;;;;;;;2.30;0.65;;;11.30;99.90;;;;;;20826462;28;20042;-48
2022/09/21 16:23:56;;;;;;;2.05;0.80;;;10.30;99.90;;;;;;20808081;28;20060;-45
2022/09/21 16:34:01;;;;;;;1.33;0.77;;;10.00;99.90;;;;;;20824031;28;20111;-45
2022/09/21 16:44:03;;;;;;;1.02;0.77;;;9.70;99.90;;;;;;20786841;28;20042;-48
2022/09/21 16:54:07;;;;;;;2.22;0.80;;;9.50;99.90;;;;;;20779687;28;20057;-59
2022/09/21 17:04:12;;;;;;;1.92;0.88;;;9.40;99.90;;;;;;20822066;28;20386;-46
2022/09/21 17:14:15;;;;;;;1.75;0.75;;;9.20;99.90;;;;;;20805263;28;20033;-47
2022/09/21 17:24:17;;;;;;;2.08;0.90;;;9.00;99.90;;;;;;20821089;28;20037;-47
2022/09/21 17:34:22;;;;;;;1.27;0.80;;;8.70;99.90;;;;;;20823757;28;20079;-45
2022/09/21 17:44:53;;;;;;;0.88;0.77;;;8.50;99.90;;;;;;20781196;28;20100;-58
2022/09/21 17:54:56;;;;;;;1.70;0.95;;;8.40;99.90;;;;;;20469467;29;20126;-45
2022/09/21 18:05:09;;;;;;;2.28;1.10;;;8.30;99.90;;;;;;20487907;28;20050;-58
2022/09/21 18:15:25;;;;;;;1.23;0.90;;;8.30;99.90;;;;;;20487327;28;20047;-47
2022/09/21 18:25:46;;;;;;;1.80;0.80;;;8.20;99.90;;;;;;20565341;28;20504;-46
2022/09/21 18:36:13;;;;;;;2.67;0.90;;;8.20;99.90;;;;;;20816654;28;20445;-45
2022/09/21 18:46:19;;;;;;;1.52;1.02;;;8.20;99.90;;;;;;20761435;28;20116;-54
2022/09/21 18:56:28;;;;;;;1.55;0.70;;;8.10;99.90;;;;;;20806800;28;20045;-47
2022/09/21 19:07:16;;;;;;;3.60;1.52;;;8.00;99.90;;;;;;20781769;28;20029;-45
2022/09/21 19:17:57;;;;;;;1.80;1.02;;;7.80;99.90;;;;;;20403418;29;20047;-48
2022/09/21 19:28:24;;;;;;;2.92;1.05;;;7.70;99.90;;;;;;20434741;29;20047;-45
2022/09/21 19:38:28;;;;;;;1.70;0.85;;;7.40;99.90;;;;;;20402030;29;20044;-47
2022/09/21 19:48:45;;;;;;;1.50;0.90;;;7.10;99.90;;;;;;20731633;28;20054;-46
2022/09/21 20:09:15;;;;;;;3.03;1.30;;;6.80;99.90;;;;;;20663559;28;20038;-46
2022/09/21 20:19:43;;;;;;;3.15;1.13;;;6.80;99.90;;;;;;20664138;28;20077;-44
2022/09/21 20:29:45;;;;;;;3.38;1.08;;;6.70;99.90;;;;;;20661917;28;20112;-45
2022/09/21 20:39:48;;;;;;;1.38;0.93;;;6.60;99.90;;;;;;20662711;28;20085;-58
2022/09/21 20:49:50;;;;;;;3.47;1.00;;;6.50;99.90;;;;;;20665988;28;20498;-45
2022/09/21 20:59:53;;;;;;;2.58;1.00;;;6.50;99.90;;;;;;20724895;28;20033;-45
2022/09/21 21:09:57;;;;;;;1.83;1.05;;;6.40;99.90;;;;;;20785077;28;20095;-48
2022/09/21 21:20:02;;;;;;;1.90;1.48;;;6.10;99.90;;;;;;20821372;28;20041;-45
2022/09/21 21:30:06;;;;;;;3.60;1.83;;;5.70;99.90;;;;;;20821042;28;20087;-46
2022/09/21 21:40:09;;;;;;;2.90;2.00;;;5.10;99.90;;;;;;20816265;28;20092;-58
2022/09/21 21:50:11;;;;;;;2.72;1.92;;;4.90;99.90;;;;;;20745346;28;20053;-45
2022/09/21 22:00:14;;;;;;;3.10;2.10;;;4.70;99.90;;;;;;20803564;28;20099;-45
2022/09/21 22:10:16;;;;;;;4.03;1.75;;;4.60;99.90;;;;;;20786739;28;20037;-45
2022/09/21 22:20:21;;;;;;;2.08;1.50;;;4.90;99.90;;;;;;20821735;28;20037;-46
2022/09/21 22:30:24;;;;;;;2.03;1.20;;;5.40;99.90;;;;;;20817721;28;20034;-45
2022/09/21 22:40:27;;;;;;;2.42;1.38;;;5.80;99.90;;;;;;20826140;28;20030;-47
2022/09/21 22:50:29;;;;;;;1.67;1.02;;;6.00;99.90;;;;;;20776275;28;20046;-45
2022/09/21 23:00:32;;;;;;;1.60;0.80;;;6.30;99.90;;;;;;20831849;28;20148;-46
2022/09/21 23:10:34;;;;;;;2.33;1.05;;;6.40;99.90;;;;;;20830818;28;20037;-46
2022/09/21 23:20:37;;;;;;;3.45;0.68;;;6.60;99.90;;;;;;20813642;28;20091;-45
2022/09/21 23:30:40;;;;;;;2.22;1.10;;;6.60;99.90;;;;;;20812316;28;20437;-45
2022/09/21 23:40:46;;;;;;;1.90;1.00;;;6.70;99.90;;;;;;20818935;28;20068;-46
2022/09/21 23:50:48;;;;;;;2.13;0.90;;;6.70;99.90;;;;;;20773874;28;20102;-45
